Time;durP1;ratioP1;P1;durP2;ratioP2;P2;SDS_P1;SDS_P2;PMS_P1;PMS_P2;Temp;Humidity;BMP_temperature;BMP_pressure;BME280_temperature;BME280_humidity;BME280_pressure;Samples;Min_cycle;Max_cycle;Signal;HPM_P1;HPM_P2
2022/10/29 00:00:48;;;;;;;32.07;19.30;;;9.90;99.90;;;;;;4404001;28;658508;-67
2022/10/29 00:03:36;;;;;;;39.30;21.97;;;9.80;99.90;;;;;;4401512;28;658204;-67
2022/10/29 00:06:23;;;;;;;34.33;22.30;;;9.80;99.90;;;;;;4425998;28;657945;-67
2022/10/29 00:09:10;;;;;;;43.47;28.03;;;9.70;99.90;;;;;;4409250;28;658624;-67
2022/10/29 00:11:57;;;;;;;46.10;28.63;;;9.70;99.90;;;;;;4426637;28;658493;-67
2022/10/29 00:14:46;;;;;;;44.23;26.07;;;9.80;99.90;;;;;;4422117;28;657724;-67
2022/10/29 00:17:34;;;;;;;47.33;28.80;;;9.80;99.90;;;;;;4432443;28;657152;-67
2022/10/29 00:20:21;;;;;;;41.80;26.37;;;9.80;99.90;;;;;;4410029;28;657692;-68
2022/10/29 00:23:08;;;;;;;47.77;28.27;;;9.70;99.90;;;;;;4429485;28;659362;-68
2022/10/29 00:25:57;;;;;;;45.73;27.97;;;9.80;99.90;;;;;;4408548;28;657296;-67
2022/10/29 00:28:44;;;;;;;48.17;28.53;;;9.80;99.90;;;;;;4428219;28;657295;-67
2022/10/29 00:31:32;;;;;;;45.53;23.33;;;9.90;99.90;;;;;;4406722;28;657950;-67
2022/10/29 00:34:20;;;;;;;39.97;23.87;;;10.00;99.90;;;;;;4426938;28;657763;-67
2022/10/29 00:37:07;;;;;;;35.10;20.40;;;10.10;99.90;;;;;;4424112;28;658840;-67
2022/10/29 00:39:54;;;;;;;32.87;19.93;;;10.00;99.90;;;;;;4424713;28;658375;-67
2022/10/29 00:42:41;;;;;;;33.23;18.97;;;10.00;99.90;;;;;;4408495;28;658871;-67
2022/10/29 00:45:29;;;;;;;33.40;18.87;;;10.10;99.90;;;;;;4428495;28;658505;-67
2022/10/29 00:48:17;;;;;;;29.70;16.90;;;10.10;99.90;;;;;;4406878;28;659271;-67
2022/10/29 00:51:05;;;;;;;34.20;17.97;;;10.00;99.90;;;;;;4422711;28;658290;-67
2022/10/29 00:53:58;;;;;;;33.57;19.27;;;10.10;99.90;;;;;;4400974;28;659894;-67
2022/10/29 00:56:47;;;;;;;30.30;17.87;;;10.10;99.90;;;;;;4406268;28;659456;-67
2022/10/29 00:59:34;;;;;;;44.30;24.80;;;10.10;99.90;;;;;;4430535;28;659111;-67
2022/10/29 01:02:22;;;;;;;41.17;26.40;;;10.20;99.90;;;;;;4405833;28;659143;-67
2022/10/29 01:05:11;;;;;;;49.33;29.60;;;10.30;99.90;;;;;;4425463;28;659214;-67
2022/10/29 01:07:58;;;;;;;50.20;31.97;;;10.30;99.90;;;;;;4399680;28;659532;-67
2022/10/29 01:10:50;;;;;;;38.60;24.27;;;10.30;99.90;;;;;;4405565;28;658940;-67
2022/10/29 01:13:51;;;;;;;51.87;30.37;;;10.20;99.90;;;;;;4402791;28;659926;-67
2022/10/29 01:16:40;;;;;;;49.37;32.03;;;10.30;99.90;;;;;;4398347;28;659301;-67
2022/10/29 01:19:41;;;;;;;44.73;28.73;;;10.30;99.90;;;;;;4399586;28;659859;-67
2022/10/29 01:22:31;;;;;;;48.90;30.43;;;10.20;99.90;;;;;;4400897;28;659157;-67
2022/10/29 01:25:30;;;;;;;45.47;27.23;;;10.10;99.90;;;;;;4397848;28;659685;-67
2022/10/29 01:28:24;;;;;;;44.77;27.83;;;10.10;99.90;;;;;;4400567;28;659233;-67
2022/10/29 01:31:19;;;;;;;44.30;27.57;;;10.00;99.90;;;;;;4374888;28;659329;-67
2022/10/29 01:34:09;;;;;;;44.20;28.20;;;10.00;99.90;;;;;;4401565;28;659025;-67
2022/10/29 01:36:58;;;;;;;42.97;26.70;;;10.00;99.90;;;;;;4399903;28;660295;-67
2022/10/29 01:39:50;;;;;;;49.57;29.30;;;9.90;99.90;;;;;;4408697;28;658545;-67
2022/10/29 01:42:37;;;;;;;45.03;29.67;;;9.90;99.90;;;;;;4403852;28;659367;-67
2022/10/29 01:45:26;;;;;;;48.67;30.13;;;9.90;99.90;;;;;;4419095;28;657523;-67
2022/10/29 01:48:17;;;;;;;43.97;28.57;;;9.90;99.90;;;;;;4428840;28;658739;-67
2022/10/29 01:51:06;;;;;;;44.60;24.67;;;10.00;99.90;;;;;;4401294;28;657612;-67
2022/10/29 01:53:53;;;;;;;39.33;24.50;;;9.80;99.90;;;;;;4405791;28;660022;-67
2022/10/29 01:56:40;;;;;;;41.57;27.83;;;9.80;99.90;;;;;;4404933;28;657678;-67
2022/10/29 01:59:29;;;;;;;38.47;25.63;;;9.80;99.90;;;;;;4427482;28;657356;-67
2022/10/29 02:02:19;;;;;;;43.63;27.13;;;9.80;99.90;;;;;;4406566;28;658025;-68
2022/10/29 02:05:12;;;;;;;44.83;28.10;;;9.80;99.90;;;;;;4408323;28;657469;-67
2022/10/29 02:08:03;;;;;;;39.37;25.63;;;10.00;99.90;;;;;;4407575;28;657293;-67
2022/10/29 02:10:52;;;;;;;43.13;26.87;;;10.00;99.90;;;;;;4385059;28;658942;-67
2022/10/29 02:13:44;;;;;;;49.80;30.83;;;10.00;99.90;;;;;;4427405;28;658752;-67
2022/10/29 02:16:31;;;;;;;47.47;28.77;;;10.00;99.90;;;;;;4411036;28;658600;-67
2022/10/29 02:19:19;;;;;;;45.53;28.53;;;10.00;99.90;;;;;;4428803;28;659648;-67
2022/10/29 02:22:07;;;;;;;44.27;25.97;;;10.00;99.90;;;;;;4411967;28;658636;-67
2022/10/29 02:24:54;;;;;;;40.03;24.70;;;9.80;99.90;;;;;;4434280;28;659285;-67
2022/10/29 02:27:41;;;;;;;44.87;25.90;;;9.90;99.90;;;;;;4402735;28;657224;-67
2022/10/29 02:30:29;;;;;;;45.53;23.37;;;10.00;99.90;;;;;;4423937;28;658668;-67
2022/10/29 02:33:16;;;;;;;42.00;23.43;;;10.10;99.90;;;;;;4406744;28;659270;-67
2022/10/29 02:36:03;;;;;;;38.90;21.08;;;10.10;99.90;;;;;;4422912;28;659103;-67
2022/10/29 02:38:52;;;;;;;34.87;19.50;;;10.00;99.90;;;;;;4410417;28;658368;-68
2022/10/29 02:41:39;;;;;;;34.07;19.67;;;10.00;99.90;;;;;;4421079;28;659424;-67
2022/10/29 02:44:26;;;;;;;31.83;18.83;;;9.80;99.90;;;;;;4404338;28;659392;-67
2022/10/29 02:47:13;;;;;;;27.53;15.70;;;9.80;99.90;;;;;;4419315;28;658621;-68
2022/10/29 02:50:00;;;;;;;30.10;14.70;;;9.80;99.90;;;;;;4412006;28;657854;-67
2022/10/29 02:52:48;;;;;;;29.37;14.73;;;9.70;99.90;;;;;;4422552;28;658972;-67
2022/10/29 02:55:37;;;;;;;25.37;14.23;;;9.80;99.90;;;;;;4419105;28;657538;-67
2022/10/29 02:58:24;;;;;;;22.63;13.17;;;9.70;99.90;;;;;;4427752;28;658304;-67
2022/10/29 03:01:11;;;;;;;35.83;17.37;;;9.70;99.90;;;;;;4409375;28;659100;-67
2022/10/29 03:03:58;;;;;;;26.77;15.20;;;9.70;99.90;;;;;;4425265;28;658917;-67
2022/10/29 03:06:45;;;;;;;23.67;14.50;;;9.80;99.90;;;;;;4401525;28;657579;-67
2022/10/29 03:09:32;;;;;;;25.90;13.70;;;9.70;99.90;;;;;;4428717;28;658903;-68
2022/10/29 03:12:21;;;;;;;24.53;13.90;;;9.70;99.90;;;;;;4424762;28;658168;-68
2022/10/29 03:15:09;;;;;;;25.60;12.47;;;9.70;99.90;;;;;;4425779;28;657161;-68
2022/10/29 03:17:57;;;;;;;24.53;12.10;;;9.80;99.90;;;;;;4407000;28;658380;-68
2022/10/29 03:20:46;;;;;;;20.10;11.70;;;9.80;99.90;;;;;;4428430;28;657725;-68
2022/10/29 03:23:33;;;;;;;24.67;12.33;;;9.80;99.90;;;;;;4408395;28;658738;-67
2022/10/29 03:26:20;;;;;;;22.97;11.83;;;9.80;99.90;;;;;;4413476;28;658053;-67
2022/10/29 03:29:09;;;;;;;21.33;11.37;;;9.70;99.90;;;;;;4424353;28;658429;-67
2022/10/29 03:31:56;;;;;;;22.47;12.57;;;9.80;99.90;;;;;;4406509;28;658025;-68
2022/10/29 03:34:43;;;;;;;24.13;13.77;;;9.90;99.90;;;;;;4422634;28;659636;-67
2022/10/29 03:37:30;;;;;;;27.77;15.10;;;9.90;99.90;;;;;;4413266;28;658828;-67
2022/10/29 03:40:18;;;;;;;24.57;15.27;;;9.90;99.90;;;;;;4429849;28;658346;-67
2022/10/29 03:43:05;;;;;;;31.63;18.23;;;9.90;99.90;;;;;;4408948;28;657736;-67
2022/10/29 03:45:54;;;;;;;31.87;18.80;;;9.90;99.90;;;;;;4429863;28;658288;-67
2022/10/29 03:48:41;;;;;;;34.40;19.90;;;9.90;99.90;;;;;;4409430;28;657805;-67
2022/10/29 03:51:29;;;;;;;27.67;17.10;;;9.80;99.90;;;;;;4422283;28;658299;-68
2022/10/29 03:54:16;;;;;;;28.67;17.17;;;9.80;99.90;;;;;;4409833;28;657616;-67
2022/10/29 03:57:03;;;;;;;34.60;20.53;;;9.80;99.90;;;;;;4431716;28;659026;-68
2022/10/29 03:59:50;;;;;;;31.70;19.48;;;9.80;99.90;;;;;;4412670;28;657854;-67
2022/10/29 04:02:39;;;;;;;32.57;17.33;;;9.90;99.90;;;;;;4431804;28;658990;-68
2022/10/29 04:05:26;;;;;;;31.30;16.47;;;9.90;99.90;;;;;;4400680;28;657757;-67
2022/10/29 04:08:13;;;;;;;21.47;13.40;;;9.80;99.90;;;;;;4430849;28;658667;-68
2022/10/29 04:11:00;;;;;;;23.37;12.37;;;9.80;99.90;;;;;;4408593;28;657367;-67
2022/10/29 04:13:47;;;;;;;19.30;11.50;;;9.80;99.90;;;;;;4427308;28;658097;-67
2022/10/29 04:16:35;;;;;;;22.43;11.20;;;9.80;99.90;;;;;;4423645;28;657482;-67
2022/10/29 04:19:24;;;;;;;18.85;11.27;;;9.80;99.90;;;;;;4431291;28;658465;-67
2022/10/29 04:22:11;;;;;;;23.08;11.15;;;9.80;99.90;;;;;;4402733;28;657514;-67
2022/10/29 04:24:58;;;;;;;20.17;11.00;;;9.80;99.90;;;;;;4419542;28;658912;-68
2022/10/29 04:27:45;;;;;;;17.13;10.55;;;9.80;99.90;;;;;;4409206;28;657782;-67
2022/10/29 04:30:32;;;;;;;21.87;12.23;;;9.90;99.90;;;;;;4428112;28;658377;-67
2022/10/29 04:33:20;;;;;;;19.87;10.93;;;10.00;99.90;;;;;;4422111;28;657595;-67
2022/10/29 04:36:08;;;;;;;19.27;10.20;;;9.90;99.90;;;;;;4407898;28;659547;-68
2022/10/29 04:38:56;;;;;;;17.50;10.50;;;9.90;99.90;;;;;;4404879;28;657493;-68
2022/10/29 04:41:43;;;;;;;24.63;10.53;;;10.00;99.90;;;;;;4424045;28;658817;-67
2022/10/29 04:44:30;;;;;;;20.87;11.00;;;10.10;99.90;;;;;;4400621;28;658630;-67
2022/10/29 04:47:17;;;;;;;25.37;10.93;;;10.10;99.90;;;;;;4423413;28;659438;-67
2022/10/29 04:50:05;;;;;;;18.17;9.90;;;10.20;99.90;;;;;;4424763;28;658824;-67
2022/10/29 04:52:53;;;;;;;18.33;10.37;;;10.30;99.90;;;;;;4399638;28;658298;-67
2022/10/29 04:55:41;;;;;;;17.37;10.33;;;10.30;99.90;;;;;;4407990;28;659645;-67
2022/10/29 04:58:28;;;;;;;16.13;9.83;;;10.40;99.90;;;;;;4435780;28;659414;-67
2022/10/29 05:01:15;;;;;;;15.63;9.13;;;10.40;99.90;;;;;;4416123;28;658790;-67
2022/10/29 05:04:02;;;;;;;17.60;10.13;;;10.50;99.90;;;;;;4428934;28;658817;-68
2022/10/29 05:06:49;;;;;;;16.53;10.00;;;10.50;99.90;;;;;;4419207;28;659201;-67
2022/10/29 05:09:38;;;;;;;21.13;10.97;;;10.50;99.90;;;;;;4409424;28;660206;-68
2022/10/29 05:12:25;;;;;;;20.77;10.27;;;10.50;99.90;;;;;;4413006;28;658595;-67
2022/10/29 05:15:12;;;;;;;19.40;11.20;;;10.50;99.90;;;;;;4435097;28;659420;-67
2022/10/29 05:17:59;;;;;;;29.43;15.00;;;10.50;99.90;;;;;;4421175;28;658763;-67
2022/10/29 05:20:47;;;;;;;29.23;16.17;;;10.60;99.90;;;;;;4408273;28;658614;-67
2022/10/29 05:23:34;;;;;;;25.67;15.13;;;10.60;99.90;;;;;;4423308;28;658639;-67
2022/10/29 05:26:22;;;;;;;28.07;15.73;;;10.60;99.90;;;;;;4408323;28;658494;-67
2022/10/29 05:29:09;;;;;;;29.43;16.37;;;10.60;99.90;;;;;;4427554;28;658282;-68
2022/10/29 05:31:57;;;;;;;25.77;15.93;;;10.60;99.90;;;;;;4402478;28;659816;-68
2022/10/29 05:34:44;;;;;;;25.50;14.43;;;10.70;99.90;;;;;;4422965;28;659759;-68
2022/10/29 05:37:31;;;;;;;24.13;12.63;;;10.70;99.90;;;;;;4412366;28;658933;-68
2022/10/29 05:40:18;;;;;;;16.57;10.20;;;10.70;99.90;;;;;;4425430;28;659124;-71
2022/10/29 05:43:07;;;;;;;20.57;9.97;;;10.70;99.90;;;;;;4405839;28;658832;-71
2022/10/29 05:45:54;;;;;;;23.20;10.30;;;10.60;99.90;;;;;;4424739;28;658776;-71
2022/10/29 05:48:41;;;;;;;19.37;10.27;;;10.60;99.90;;;;;;4405265;28;658952;-71
2022/10/29 05:51:28;;;;;;;17.63;9.37;;;10.60;99.90;;;;;;4430678;28;659004;-71
2022/10/29 05:54:15;;;;;;;18.67;9.33;;;10.60;99.90;;;;;;4406024;28;657857;-71
2022/10/29 05:57:02;;;;;;;17.90;9.63;;;10.60;99.90;;;;;;4431590;28;659426;-71
2022/10/29 05:59:51;;;;;;;14.87;8.97;;;10.60;99.90;;;;;;4424667;28;657635;-71
2022/10/29 06:02:39;;;;;;;19.87;9.60;;;10.60;99.90;;;;;;4426328;28;658752;-71
2022/10/29 06:05:26;;;;;;;17.53;8.87;;;10.60;99.90;;;;;;4404380;28;657992;-71
2022/10/29 06:08:13;;;;;;;16.40;9.07;;;10.60;99.90;;;;;;4428097;28;657586;-71
2022/10/29 06:11:01;;;;;;;20.23;9.40;;;10.60;99.90;;;;;;4402215;28;657647;-70
2022/10/29 06:13:48;;;;;;;15.60;9.13;;;10.70;99.90;;;;;;4418007;28;658746;-72
2022/10/29 06:16:37;;;;;;;22.73;9.90;;;10.80;99.90;;;;;;4405063;28;657550;-71
2022/10/29 06:19:24;;;;;;;21.92;9.18;;;10.80;99.90;;;;;;4431449;28;657297;-71
2022/10/29 06:22:11;;;;;;;22.10;9.37;;;10.90;99.90;;;;;;4403765;28;657574;-71
2022/10/29 06:24:58;;;;;;;18.20;9.33;;;11.00;99.90;;;;;;4431481;28;657652;-72
2022/10/29 06:27:46;;;;;;;16.80;8.47;;;11.10;99.90;;;;;;4404454;28;657324;-72
2022/10/29 06:30:34;;;;;;;18.30;9.07;;;11.10;99.90;;;;;;4428661;28;658868;-71
2022/10/29 06:33:22;;;;;;;16.53;9.70;;;11.10;99.90;;;;;;4408189;28;657753;-71
2022/10/29 06:36:09;;;;;;;17.00;9.10;;;11.20;99.90;;;;;;4427444;28;658443;-72
2022/10/29 06:38:57;;;;;;;22.77;9.50;;;11.20;99.90;;;;;;4408692;28;657406;-71
2022/10/29 06:41:44;;;;;;;20.80;10.07;;;11.30;99.90;;;;;;4424540;28;658022;-71
2022/10/29 06:44:31;;;;;;;20.77;9.10;;;11.30;99.90;;;;;;4406743;28;658563;-71
2022/10/29 06:47:18;;;;;;;16.73;9.40;;;11.40;99.90;;;;;;4426320;28;658448;-70
2022/10/29 06:50:07;;;;;;;17.70;9.68;;;11.60;99.90;;;;;;4408608;28;657847;-71
2022/10/29 06:52:56;;;;;;;22.63;10.63;;;11.70;99.90;;;;;;4420978;28;658138;-71
2022/10/29 06:55:43;;;;;;;22.90;9.50;;;11.80;99.90;;;;;;4425488;28;659562;-71
2022/10/29 06:58:31;;;;;;;18.83;9.20;;;11.90;99.90;;;;;;4405486;28;658099;-72
2022/10/29 07:01:18;;;;;;;20.07;9.33;;;12.00;99.90;;;;;;4430471;28;658810;-71
2022/10/29 07:04:05;;;;;;;17.33;8.40;;;12.10;99.90;;;;;;4413415;28;657643;-70
2022/10/29 07:06:54;;;;;;;23.10;11.13;;;12.30;99.90;;;;;;4426619;28;658480;-71
2022/10/29 07:09:42;;;;;;;27.23;12.90;;;12.30;99.90;;;;;;4404991;28;658620;-70
2022/10/29 07:12:29;;;;;;;30.50;14.20;;;12.50;99.90;;;;;;4422187;28;658975;-71
2022/10/29 07:15:16;;;;;;;25.43;12.97;;;12.60;99.90;;;;;;4405599;28;658736;-70
2022/10/29 07:18:04;;;;;;;23.20;12.73;;;12.70;99.90;;;;;;4427610;28;659384;-70
2022/10/29 07:20:51;;;;;;;25.63;12.73;;;12.70;99.90;;;;;;4389983;28;658579;-71
2022/10/29 07:23:40;;;;;;;25.03;13.07;;;12.70;99.90;;;;;;4423997;28;659539;-70
2022/10/29 07:26:27;;;;;;;28.57;12.97;;;12.60;99.90;;;;;;4398585;28;658535;-70
2022/10/29 07:29:14;;;;;;;24.77;12.83;;;12.60;99.90;;;;;;4417163;28;658894;-71
2022/10/29 07:32:01;;;;;;;27.73;12.63;;;12.70;99.90;;;;;;4402728;28;658568;-71
2022/10/29 07:34:49;;;;;;;25.23;12.00;;;12.80;99.90;;;;;;4421661;28;659668;-71
2022/10/29 07:37:36;;;;;;;25.20;12.33;;;12.80;99.90;;;;;;4397050;28;658458;-70
2022/10/29 07:40:24;;;;;;;26.70;11.87;;;12.80;99.90;;;;;;4424004;28;657909;-71
2022/10/29 07:43:11;;;;;;;27.77;13.37;;;12.80;99.90;;;;;;4400030;28;658405;-70
2022/10/29 07:45:59;;;;;;;24.30;12.47;;;12.90;99.90;;;;;;4420086;28;660833;-70
2022/10/29 07:48:46;;;;;;;26.20;13.07;;;13.10;99.90;;;;;;4403682;28;658313;-70
2022/10/29 07:51:33;;;;;;;25.90;12.90;;;13.00;99.90;;;;;;4422915;28;659085;-71
2022/10/29 07:54:21;;;;;;;25.53;12.90;;;13.00;99.90;;;;;;4402253;28;659072;-71
2022/10/29 07:57:09;;;;;;;27.23;11.93;;;13.30;99.90;;;;;;4420196;28;659819;-71
2022/10/29 07:59:56;;;;;;;15.97;8.03;;;13.40;99.90;;;;;;4390368;28;658588;-70
2022/10/29 08:02:43;;;;;;;23.37;10.90;;;13.60;99.90;;;;;;4423867;28;657711;-71
2022/10/29 08:05:31;;;;;;;21.50;10.77;;;13.80;99.90;;;;;;4401941;28;659706;-71
2022/10/29 08:08:18;;;;;;;22.77;10.90;;;14.00;99.90;;;;;;4423351;28;659399;-71
2022/10/29 08:11:05;;;;;;;21.10;10.53;;;14.00;99.90;;;;;;4402167;28;659982;-71
2022/10/29 08:13:54;;;;;;;24.33;10.20;;;14.10;99.90;;;;;;4412095;28;659272;-70
2022/10/29 08:16:41;;;;;;;20.40;10.27;;;14.30;99.90;;;;;;4401009;28;658806;-71
2022/10/29 08:19:28;;;;;;;20.13;9.67;;;14.20;99.90;;;;;;4416559;28;659449;-71
2022/10/29 08:22:16;;;;;;;22.17;8.90;;;14.50;99.90;;;;;;4405041;28;657457;-70
2022/10/29 08:25:03;;;;;;;20.40;10.10;;;14.40;99.90;;;;;;4417612;28;658096;-70
2022/10/29 08:27:59;;;;;;;11.57;5.37;;;14.40;99.90;;;;;;4409530;28;658752;-69
2022/10/29 08:30:50;;;;;;;20.47;9.67;;;14.40;99.90;;;;;;4404872;28;657259;-70
2022/10/29 08:33:37;;;;;;;22.13;9.50;;;14.30;99.90;;;;;;4405348;28;658837;-70
2022/10/29 08:36:24;;;;;;;16.53;7.30;;;14.40;99.90;;;;;;4427787;28;657788;-70
2022/10/29 08:39:12;;;;;;;14.93;8.17;;;14.50;99.90;;;;;;4404656;28;657907;-71
2022/10/29 08:42:02;;;;;;;15.53;9.07;;;14.50;99.90;;;;;;4425112;28;657700;-70
2022/10/29 08:45:14;;;;;;;17.20;8.67;;;14.40;99.90;;;;;;4418819;28;657768;-70
2022/10/29 08:48:16;;;;;;;17.67;8.73;;;14.80;99.90;;;;;;4396677;28;657914;-70
2022/10/29 08:51:07;;;;;;;16.17;5.83;;;14.80;99.90;;;;;;4400426;28;657832;-70
2022/10/29 08:53:56;;;;;;;16.57;8.93;;;15.10;99.90;;;;;;4399334;28;657994;-70
2022/10/29 08:56:45;;;;;;;18.60;9.20;;;14.90;99.90;;;;;;4402294;28;657580;-70
2022/10/29 08:59:34;;;;;;;16.67;8.20;;;15.30;99.90;;;;;;4409301;28;659106;-70
2022/10/29 09:02:21;;;;;;;18.87;9.30;;;15.50;99.90;;;;;;4405647;28;657521;-70
2022/10/29 09:05:14;;;;;;;16.57;8.43;;;15.20;99.90;;;;;;4415839;28;657736;-71
2022/10/29 09:08:09;;;;;;;18.17;8.23;;;15.10;99.90;;;;;;4381789;28;657952;-69
2022/10/29 09:10:56;;;;;;;15.70;8.87;;;15.50;99.90;;;;;;4381813;28;658203;-70
2022/10/29 09:13:47;;;;;;;17.27;8.30;;;15.90;99.90;;;;;;4426019;28;658654;-71
2022/10/29 09:16:41;;;;;;;19.40;8.43;;;15.60;99.90;;;;;;4402155;28;657762;-70
2022/10/29 09:19:39;;;;;;;16.17;8.47;;;15.80;99.90;;;;;;4400922;28;659143;-70
2022/10/29 09:22:29;;;;;;;16.07;9.40;;;16.00;99.90;;;;;;4372987;28;658088;-70
2022/10/29 09:25:18;;;;;;;15.97;7.93;;;16.20;99.90;;;;;;4406110;28;657777;-70
2022/10/29 09:28:11;;;;;;;14.70;7.20;;;16.40;99.90;;;;;;4405849;28;657863;-70
2022/10/29 09:31:01;;;;;;;16.23;8.10;;;16.90;99.90;;;;;;4400935;28;657631;-70
2022/10/29 09:33:49;;;;;;;15.13;7.23;;;17.20;99.90;;;;;;4393754;28;658641;-70
2022/10/29 09:36:36;;;;;;;12.93;6.97;;;17.10;99.90;;;;;;4407816;28;657488;-70
2022/10/29 09:39:28;;;;;;;8.50;5.27;;;16.50;99.90;;;;;;4419907;28;657993;-70
2022/10/29 09:42:17;;;;;;;12.37;6.60;;;16.80;99.90;;;;;;4393028;28;657036;-69
2022/10/29 09:45:08;;;;;;;17.50;7.63;;;17.00;99.90;;;;;;4413155;28;657384;-70
2022/10/29 09:47:58;;;;;;;14.07;8.03;;;16.90;99.90;;;;;;4388501;28;657395;-70
2022/10/29 09:50:52;;;;;;;14.53;7.57;;;16.70;99.90;;;;;;4403286;28;658118;-69
2022/10/29 09:53:39;;;;;;;16.90;7.57;;;16.20;99.90;;;;;;4402976;28;657685;-71
2022/10/29 09:56:28;;;;;;;20.43;8.30;;;16.20;99.90;;;;;;4401928;28;658055;-71
2022/10/29 09:59:19;;;;;;;14.50;8.13;;;16.40;99.90;;;;;;4418921;28;657543;-70
2022/10/29 10:02:18;;;;;;;14.27;8.20;;;16.20;99.90;;;;;;4401034;28;657720;-70
2022/10/29 10:05:07;;;;;;;23.53;8.27;;;16.10;99.90;;;;;;4383506;28;657985;-70
2022/10/29 10:08:06;;;;;;;11.27;6.17;;;16.20;99.90;;;;;;4433417;28;657438;-70
2022/10/29 10:10:54;;;;;;;15.80;8.07;;;16.70;99.90;;;;;;4404021;28;657894;-70
2022/10/29 10:13:52;;;;;;;15.93;7.20;;;16.60;99.90;;;;;;4412452;28;658003;-70
2022/10/29 10:16:39;;;;;;;12.20;7.03;;;16.80;99.90;;;;;;4401831;28;657570;-71
2022/10/29 10:19:27;;;;;;;15.03;6.97;;;16.40;99.90;;;;;;4413729;28;659618;-71
2022/10/29 10:22:19;;;;;;;12.87;7.03;;;16.60;99.90;;;;;;4433918;28;657421;-70
2022/10/29 10:25:16;;;;;;;16.53;6.80;;;17.10;99.90;;;;;;4405498;28;657739;-70
2022/10/29 10:28:05;;;;;;;13.73;7.30;;;17.00;99.90;;;;;;4405111;28;657971;-71
2022/10/29 10:31:11;;;;;;;16.93;7.60;;;17.30;99.90;;;;;;4403915;28;658304;-71
2022/10/29 10:33:58;;;;;;;15.27;6.73;;;17.70;99.90;;;;;;4404964;28;657996;-70
2022/10/29 10:36:49;;;;;;;15.40;6.67;;;17.30;99.90;;;;;;4408477;28;657768;-70
2022/10/29 10:39:36;;;;;;;15.53;7.20;;;17.50;99.90;;;;;;4406093;28;657358;-71
2022/10/29 10:42:25;;;;;;;17.70;6.63;;;17.60;99.90;;;;;;4427757;28;657671;-69
2022/10/29 10:45:14;;;;;;;11.50;6.00;;;17.30;99.90;;;;;;4405302;28;658801;-69
2022/10/29 10:48:03;;;;;;;15.95;6.47;;;17.40;99.90;;;;;;4407309;28;657444;-70
2022/10/29 10:50:50;;;;;;;13.23;6.47;;;17.30;99.90;;;;;;4414810;28;657617;-71
2022/10/29 10:53:39;;;;;;;14.70;6.50;;;17.50;99.90;;;;;;4431378;28;659113;-70
2022/10/29 10:56:26;;;;;;;11.97;6.23;;;17.70;99.90;;;;;;4409767;28;658551;-70
2022/10/29 10:59:13;;;;;;;11.07;5.40;;;18.40;99.90;;;;;;4428572;28;658826;-71
2022/10/29 11:02:01;;;;;;;10.33;5.43;;;17.90;99.90;;;;;;4410489;28;657688;-70
2022/10/29 11:04:54;;;;;;;11.53;5.00;;;17.80;99.90;;;;;;4429269;28;658223;-70
2022/10/29 11:07:42;;;;;;;9.57;4.60;;;18.80;99.90;;;;;;4404382;28;657269;-71
2022/10/29 11:10:33;;;;;;;15.33;5.30;;;18.90;99.90;;;;;;4433534;28;656489;-71
2022/10/29 11:13:21;;;;;;;11.73;5.60;;;18.80;99.90;;;;;;4388543;28;658169;-70
2022/10/29 11:16:13;;;;;;;12.40;5.13;;;18.80;99.90;;;;;;4432431;28;658727;-70
2022/10/29 11:19:03;;;;;;;12.20;5.83;;;18.90;99.90;;;;;;4386731;28;658046;-71
2022/10/29 11:22:01;;;;;;;16.40;6.10;;;18.90;99.90;;;;;;4404339;28;657937;-70
2022/10/29 11:24:51;;;;;;;9.67;4.20;;;19.90;99.90;;;;;;4405556;28;658214;-70
2022/10/29 11:27:40;;;;;;;11.47;5.20;;;19.70;99.90;;;;;;4407178;28;657377;-71
2022/10/29 11:30:28;;;;;;;10.20;4.97;;;19.70;99.90;;;;;;4405217;28;658456;-70
2022/10/29 11:33:20;;;;;;;11.23;5.13;;;20.20;99.90;;;;;;4408773;28;658356;-70
2022/10/29 11:36:12;;;;;;;12.70;5.80;;;19.90;99.90;;;;;;4402327;28;659008;-71
2022/10/29 11:39:02;;;;;;;11.53;5.87;;;20.30;99.90;;;;;;4405996;28;657898;-71
2022/10/29 11:41:52;;;;;;;15.47;5.00;;;20.20;99.90;;;;;;4399923;28;658367;-70
2022/10/29 11:44:39;;;;;;;10.13;4.70;;;20.20;99.90;;;;;;4405683;28;657839;-70
2022/10/29 11:47:39;;;;;;;16.40;5.70;;;20.00;99.90;;;;;;4409510;28;658473;-70
2022/10/29 11:50:28;;;;;;;15.70;4.27;;;19.70;99.90;;;;;;4386611;28;658985;-69
2022/10/29 11:53:21;;;;;;;12.10;5.53;;;19.70;99.90;;;;;;4401408;28;658082;-71
2022/10/29 11:56:12;;;;;;;7.85;4.30;;;19.40;99.90;;;;;;4409130;28;658001;-69
2022/10/29 11:59:02;;;;;;;13.13;6.10;;;20.10;99.90;;;;;;4424629;28;656752;-70
2022/10/29 12:01:53;;;;;;;13.97;6.17;;;19.70;99.90;;;;;;4418135;28;658128;-70
2022/10/29 12:04:41;;;;;;;14.10;6.33;;;20.20;99.90;;;;;;4385732;28;657965;-70
2022/10/29 12:07:35;;;;;;;11.67;5.77;;;20.10;99.90;;;;;;4428547;28;658508;-70
2022/10/29 12:10:45;;;;;;;21.63;5.83;;;20.10;99.90;;;;;;4381978;28;657796;-70
2022/10/29 12:13:42;;;;;;;10.60;5.73;;;20.70;99.90;;;;;;4380415;28;658069;-70
2022/10/29 12:16:38;;;;;;;11.67;5.27;;;20.20;99.90;;;;;;4402260;28;657856;-70
2022/10/29 12:19:32;;;;;;;13.37;5.70;;;21.00;99.90;;;;;;4386308;28;657626;-70
2022/10/29 12:22:24;;;;;;;13.43;5.70;;;20.60;99.90;;;;;;4404810;28;658210;-70
2022/10/29 12:25:20;;;;;;;14.87;5.90;;;21.30;99.90;;;;;;4408448;28;657793;-69
2022/10/29 12:28:17;;;;;;;18.17;5.97;;;22.50;95.00;;;;;;4381037;28;658027;-70
2022/10/29 12:31:11;;;;;;;14.40;6.60;;;22.20;93.50;;;;;;4423987;28;657732;-70
2022/10/29 12:34:02;;;;;;;12.80;5.93;;;20.30;94.80;;;;;;4389818;28;658696;-69
2022/10/29 12:36:51;;;;;;;16.27;5.90;;;19.70;99.90;;;;;;4399304;28;657791;-69
2022/10/29 12:39:40;;;;;;;16.30;6.43;;;19.10;99.90;;;;;;4400516;28;658510;-70
2022/10/29 12:42:29;;;;;;;13.30;6.10;;;18.90;99.90;;;;;;4409175;28;657677;-69
2022/10/29 12:45:28;;;;;;;12.97;6.10;;;19.30;99.90;;;;;;4400434;28;658033;-70
2022/10/29 12:48:18;;;;;;;14.37;6.53;;;19.80;99.90;;;;;;4386198;28;658666;-70
2022/10/29 12:51:09;;;;;;;19.13;6.53;;;20.30;99.90;;;;;;4409220;28;658271;-70
2022/10/29 12:54:12;;;;;;;14.23;5.83;;;21.40;99.10;;;;;;4409474;28;657927;-70
2022/10/29 12:57:06;;;;;;;12.03;6.30;;;23.20;92.40;;;;;;4401382;28;658733;-70
2022/10/29 12:59:53;;;;;;;15.10;6.47;;;23.50;90.00;;;;;;4404099;28;657707;-70
2022/10/29 13:02:44;;;;;;;11.40;5.77;;;23.90;82.00;;;;;;4400969;28;657881;-71
2022/10/29 13:05:41;;;;;;;10.97;6.27;;;22.40;82.40;;;;;;4394300;28;657975;-70
2022/10/29 13:08:35;;;;;;;14.33;5.97;;;22.60;90.20;;;;;;4404881;28;658023;-70
2022/10/29 13:11:24;;;;;;;12.10;4.93;;;22.40;85.50;;;;;;4381452;28;657524;-69
2022/10/29 13:14:11;;;;;;;12.27;5.90;;;23.00;84.80;;;;;;4407294;28;657497;-70
2022/10/29 13:16:58;;;;;;;11.37;5.30;;;22.30;84.60;;;;;;4429795;28;659029;-70
2022/10/29 13:19:47;;;;;;;11.60;5.83;;;22.10;88.70;;;;;;4411714;28;657537;-70
2022/10/29 13:23:00;;;;;;;13.80;5.53;;;22.50;88.90;;;;;;4422823;28;657500;-70
2022/10/29 13:25:48;;;;;;;15.80;5.73;;;22.50;85.20;;;;;;4371677;28;657914;-70
2022/10/29 13:28:49;;;;;;;9.90;5.17;;;22.50;86.10;;;;;;4400004;28;657727;-70
2022/10/29 13:31:47;;;;;;;16.40;5.70;;;23.60;83.70;;;;;;4412577;28;656302;-70
2022/10/29 13:34:51;;;;;;;12.13;6.20;;;22.50;85.40;;;;;;4391553;28;657361;-70
2022/10/29 13:37:53;;;;;;;14.10;5.57;;;21.00;90.50;;;;;;4407153;28;657658;-69
2022/10/29 13:41:10;;;;;;;11.73;5.97;;;21.00;91.80;;;;;;4382383;28;657830;-69
2022/10/29 13:43:58;;;;;;;18.97;6.77;;;21.00;91.70;;;;;;4380443;28;657365;-70
2022/10/29 13:46:46;;;;;;;14.87;6.17;;;21.10;94.30;;;;;;4402945;28;657930;-70
2022/10/29 13:49:37;;;;;;;15.07;5.97;;;21.40;92.20;;;;;;4429655;28;657943;-70
2022/10/29 13:52:24;;;;;;;17.90;6.90;;;20.90;92.10;;;;;;4407431;28;658554;-70
2022/10/29 13:55:14;;;;;;;14.83;6.53;;;20.10;93.80;;;;;;4411351;28;657694;-70
2022/10/29 13:58:05;;;;;;;20.03;6.53;;;19.50;98.40;;;;;;4411434;28;657835;-69
2022/10/29 14:00:53;;;;;;;13.13;6.77;;;18.80;99.90;;;;;;4407453;28;658583;-70
2022/10/29 14:03:46;;;;;;;14.83;7.27;;;18.80;99.90;;;;;;4418577;28;658125;-70
2022/10/29 14:06:36;;;;;;;17.23;6.80;;;19.10;99.90;;;;;;4402211;28;658197;-70
2022/10/29 14:09:25;;;;;;;20.77;6.90;;;18.90;99.90;;;;;;4407361;28;657793;-70
2022/10/29 14:12:16;;;;;;;15.70;7.17;;;19.30;99.90;;;;;;4409330;28;657917;-70
2022/10/29 14:15:06;;;;;;;15.10;7.67;;;19.00;99.90;;;;;;4406699;28;657715;-71